GACFB EGEI-EGPO
Flight info
| Callsign | GACFB |
|---|---|
| Flight time | N/A |
| Altitude | 4000 |
| Route | 572057N0054001W DCT 572050N0054545W 572126N0054955W 573409N0055707W 575024N0060804W 580554N0061832W |
| Aircraft | C172/L-SFG/C |
Departure
| Time | 2026-04-17 15:34 |
|---|---|
| Airport | Broadford Airstrip (EGEI) |
Arrival
| Time | N/A |
|---|---|
| Airport | Stornoway Airport (EGPO) |
| Time | Latitude | Longitude | Altitude | Speed | Heading |
|---|---|---|---|---|---|
| 2026-04-17 15:27 | 57.75476 | -6.44906 | 3999 ft | 117 kts | 132° |
| 2026-04-17 15:27 | 57.74927 | -6.43792 | 3999 ft | 117 kts | 132° |
| 2026-04-17 15:27 | 57.74373 | -6.42674 | 3999 ft | 117 kts | 132° |
| 2026-04-17 15:27 | 57.73814 | -6.41554 | 3999 ft | 117 kts | 133° |
| 2026-04-17 15:28 | 57.73253 | -6.40434 | 3999 ft | 117 kts | 133° |
| 2026-04-17 15:28 | 57.72695 | -6.39325 | 3999 ft | 117 kts | 133° |
| 2026-04-17 15:28 | 57.72133 | -6.38212 | 3999 ft | 117 kts | 133° |
| 2026-04-17 15:28 | 57.71569 | -6.37101 | 3999 ft | 117 kts | 133° |
| 2026-04-17 15:29 | 57.71011 | -6.36004 | 4000 ft | 117 kts | 133° |
| 2026-04-17 15:29 | 57.70448 | -6.34890 | 4000 ft | 117 kts | 133° |
| 2026-04-17 15:29 | 57.69893 | -6.33786 | 4068 ft | 115 kts | 133° |
| 2026-04-17 15:29 | 57.69322 | -6.32750 | 4238 ft | 114 kts | 148° |
| 2026-04-17 15:30 | 57.68606 | -6.32165 | 4412 ft | 113 kts | 160° |
| 2026-04-17 15:30 | 57.67864 | -6.31705 | 4586 ft | 112 kts | 162° |
| 2026-04-17 15:30 | 57.67119 | -6.31271 | 4762 ft | 111 kts | 162° |
| 2026-04-17 15:30 | 57.66381 | -6.30838 | 4935 ft | 111 kts | 162° |
| 2026-04-17 15:31 | 57.65623 | -6.30393 | 4995 ft | 118 kts | 163° |
| 2026-04-17 15:31 | 57.64828 | -6.29937 | 5000 ft | 121 kts | 163° |
| 2026-04-17 15:31 | 57.64006 | -6.29478 | 5001 ft | 127 kts | 163° |
| 2026-04-17 15:31 | 57.63151 | -6.29024 | 5000 ft | 128 kts | 165° |
| 2026-04-17 15:32 | 57.62281 | -6.28579 | 5000 ft | 129 kts | 165° |
| 2026-04-17 15:32 | 57.61417 | -6.28143 | 4999 ft | 129 kts | 165° |
| 2026-04-17 15:32 | 57.60553 | -6.27710 | 4999 ft | 129 kts | 165° |
| 2026-04-17 15:32 | 57.59681 | -6.27273 | 4999 ft | 129 kts | 165° |
| 2026-04-17 15:33 | 57.58838 | -6.26850 | 5094 ft | 123 kts | 165° |
| 2026-04-17 15:33 | 57.58038 | -6.26448 | 5254 ft | 117 kts | 165° |
| 2026-04-17 15:33 | 57.57234 | -6.26045 | 5296 ft | 123 kts | 165° |
| 2026-04-17 15:33 | 57.56389 | -6.25623 | 5301 ft | 127 kts | 165° |
| 2026-04-17 15:34 | 57.55529 | -6.25194 | 5300 ft | 129 kts | 165° |
| 2026-04-17 15:34 | 57.54660 | -6.24761 | 5300 ft | 129 kts | 165° |
| 2026-04-17 15:34 | 57.53790 | -6.24327 | 5299 ft | 129 kts | 165° |
| 2026-04-17 15:34 | 57.52923 | -6.23894 | 5299 ft | 129 kts | 165° |
| 2026-04-17 15:35 | 57.52048 | -6.23458 | 5299 ft | 129 kts | 165° |
| 2026-04-17 15:35 | 57.51180 | -6.23025 | 5299 ft | 129 kts | 165° |
| 2026-04-17 15:35 | 57.50309 | -6.22591 | 5299 ft | 129 kts | 165° |
| 2026-04-17 15:35 | 57.49446 | -6.22162 | 5299 ft | 129 kts | 165° |
| 2026-04-17 15:36 | 57.48577 | -6.21730 | 5299 ft | 129 kts | 165° |
| 2026-04-17 15:36 | 57.47715 | -6.21300 | 5299 ft | 129 kts | 165° |
| 2026-04-17 15:36 | 57.46836 | -6.20856 | 5219 ft | 131 kts | 165° |
| 2026-04-17 15:36 | 57.45966 | -6.20399 | 5045 ft | 130 kts | 164° |
| 2026-04-17 15:37 | 57.45096 | -6.19935 | 4869 ft | 129 kts | 164° |
| 2026-04-17 15:37 | 57.44235 | -6.19472 | 4725 ft | 127 kts | 164° |
| 2026-04-17 15:37 | 57.43396 | -6.19019 | 4681 ft | 128 kts | 164° |
| 2026-04-17 15:37 | 57.42534 | -6.18555 | 4503 ft | 129 kts | 164° |
| 2026-04-17 15:38 | 57.41675 | -6.18095 | 4327 ft | 128 kts | 164° |
| 2026-04-17 15:38 | 57.40821 | -6.17636 | 4152 ft | 127 kts | 164° |
| 2026-04-17 15:38 | 57.39984 | -6.17187 | 4021 ft | 126 kts | 164° |
| 2026-04-17 15:38 | 57.39141 | -6.16732 | 4002 ft | 125 kts | 163° |
| 2026-04-17 15:39 | 57.38308 | -6.16282 | 4000 ft | 126 kts | 164° |
| 2026-04-17 15:39 | 57.37469 | -6.15831 | 4000 ft | 126 kts | 164° |
| 2026-04-17 15:39 | 57.36616 | -6.15373 | 4000 ft | 127 kts | 164° |
| 2026-04-17 15:39 | 57.35779 | -6.14924 | 4000 ft | 127 kts | 164° |
| 2026-04-17 15:40 | 57.34932 | -6.14470 | 4000 ft | 127 kts | 164° |
| 2026-04-17 15:40 | 57.34076 | -6.14013 | 3873 ft | 129 kts | 164° |
| 2026-04-17 15:40 | 57.33216 | -6.13557 | 3697 ft | 127 kts | 164° |
| 2026-04-17 15:40 | 57.32375 | -6.13108 | 3610 ft | 125 kts | 164° |
| 2026-04-17 15:41 | 57.31565 | -6.12535 | 3576 ft | 126 kts | 151° |
| 2026-04-17 15:41 | 57.30839 | -6.11627 | 3398 ft | 122 kts | 142° |
| 2026-04-17 15:41 | 57.30208 | -6.10655 | 3221 ft | 117 kts | 139° |
| 2026-04-17 15:41 | 57.29604 | -6.09665 | 3044 ft | 115 kts | 138° |
| 2026-04-17 15:42 | 57.29010 | -6.08676 | 2868 ft | 114 kts | 138° |
| 2026-04-17 15:42 | 57.28450 | -6.07636 | 2692 ft | 114 kts | 130° |
| 2026-04-17 15:42 | 57.27952 | -6.06530 | 2531 ft | 107 kts | 129° |
| 2026-04-17 15:42 | 57.27520 | -6.05457 | 2501 ft | 102 kts | 126° |
| 2026-04-17 15:43 | 57.27112 | -6.04395 | 2500 ft | 102 kts | 125° |
| 2026-04-17 15:43 | 57.26696 | -6.03309 | 2478 ft | 105 kts | 125° |
| 2026-04-17 15:43 | 57.26288 | -6.02247 | 2380 ft | 98 kts | 125° |
| 2026-04-17 15:43 | 57.25952 | -6.01193 | 2302 ft | 94 kts | 118° |
| 2026-04-17 15:44 | 57.25641 | -6.00132 | 2226 ft | 93 kts | 118° |
| 2026-04-17 15:44 | 57.25337 | -5.99084 | 2188 ft | 92 kts | 116° |
| 2026-04-17 15:44 | 57.25063 | -5.98036 | 2138 ft | 84 kts | 115° |
| 2026-04-17 15:44 | 57.24809 | -5.97048 | 2065 ft | 84 kts | 115° |
| 2026-04-17 15:45 | 57.24561 | -5.96082 | 2007 ft | 82 kts | 115° |
| 2026-04-17 15:45 | 57.24318 | -5.95131 | 2000 ft | 81 kts | 115° |
| 2026-04-17 15:45 | 57.24074 | -5.94179 | 1944 ft | 84 kts | 115° |
| 2026-04-17 15:45 | 57.23826 | -5.93219 | 1769 ft | 83 kts | 115° |
| 2026-04-17 15:46 | 57.23582 | -5.92275 | 1583 ft | 80 kts | 115° |
| 2026-04-17 15:46 | 57.23346 | -5.91310 | 1322 ft | 83 kts | 112° |
| 2026-04-17 15:46 | 57.23171 | -5.90318 | 1085 ft | 82 kts | 100° |
| 2026-04-17 15:46 | 57.23203 | -5.89267 | 844 ft | 83 kts | 75° |
| 2026-04-17 15:47 | 57.23398 | -5.88291 | 675 ft | 77 kts | 73° |
| 2026-04-17 15:47 | 57.23609 | -5.87487 | 598 ft | 73 kts | 59° |
| 2026-04-17 15:47 | 57.23878 | -5.86742 | 543 ft | 69 kts | 50° |
| 2026-04-17 15:47 | 57.24195 | -5.86078 | 411 ft | 69 kts | 50° |
| 2026-04-17 15:48 | 57.24496 | -5.85391 | 264 ft | 68 kts | 53° |
| 2026-04-17 15:48 | 57.24744 | -5.84671 | 129 ft | 65 kts | 59° |
| 2026-04-17 15:48 | 57.24953 | -5.83978 | 94 ft | 57 kts | 62° |
| 2026-04-17 15:48 | 57.25127 | -5.83372 | 62 ft | 50 kts | 59° |
| 2026-04-17 15:49 | 57.25287 | -5.82874 | 31 ft | 37 kts | 58° |
| 2026-04-17 15:49 | 57.25345 | -5.82697 | 30 ft | 20 kts | 57° |
| 2026-04-17 15:49 | 57.25351 | -5.82492 | 27 ft | 2 kts | 133° |
| 2026-04-17 15:49 | 57.25351 | -5.82475 | 27 ft | 0 kts | 65° |